Time;durP1;ratioP1;P1;durP2;ratioP2;P2;SDS_P1;SDS_P2;PMS_P1;PMS_P2;Temp;Humidity;BMP_temperature;BMP_pressure;BME280_temperature;BME280_humidity;BME280_pressure;Samples;Min_cycle;Max_cycle;Signal;HPM_P1;HPM_P2
2022/01/19 00:00:51;;;;;;;139.13;48.38;;;5.00;99.90;;;;;;4964828;28;20043;-72
2022/01/19 00:03:17;;;;;;;132.00;47.28;;;5.00;99.90;;;;;;4949366;28;20092;-72
2022/01/19 00:05:42;;;;;;;125.57;45.05;;;5.00;99.90;;;;;;4947927;28;20102;-72
2022/01/19 00:08:08;;;;;;;116.22;41.15;;;5.00;99.90;;;;;;4966184;28;20035;-73
2022/01/19 00:10:34;;;;;;;111.78;41.83;;;5.00;99.90;;;;;;4964102;28;20039;-72
2022/01/19 00:13:00;;;;;;;121.10;43.15;;;5.10;99.90;;;;;;4969938;28;20486;-73
2022/01/19 00:15:28;;;;;;;111.75;41.50;;;5.00;99.90;;;;;;4953077;28;20502;-73
2022/01/19 00:17:57;;;;;;;102.28;39.78;;;5.20;99.90;;;;;;4970483;28;20991;-72
2022/01/19 00:20:25;;;;;;;106.47;41.53;;;5.20;99.90;;;;;;4952158;28;20121;-73
2022/01/19 00:22:50;;;;;;;107.60;39.28;;;5.20;99.90;;;;;;4969875;28;20668;-73
2022/01/19 00:25:17;;;;;;;108.57;40.45;;;5.30;99.90;;;;;;4950838;28;20053;-73
2022/01/19 00:27:43;;;;;;;104.32;38.97;;;5.30;99.90;;;;;;4969401;28;20611;-73
2022/01/19 00:30:09;;;;;;;101.40;39.35;;;5.30;99.90;;;;;;4949448;28;20050;-73
2022/01/19 00:32:34;;;;;;;100.75;37.80;;;5.30;99.90;;;;;;4953045;28;20465;-73
2022/01/19 00:35:01;;;;;;;95.35;37.67;;;5.30;99.90;;;;;;4951782;28;20070;-73
2022/01/19 00:37:27;;;;;;;99.75;36.90;;;5.20;99.90;;;;;;4968789;28;20077;-73
2022/01/19 00:39:52;;;;;;;90.63;36.88;;;5.10;99.90;;;;;;4952501;28;20070;-73
2022/01/19 00:42:19;;;;;;;85.10;37.00;;;5.00;99.90;;;;;;4951975;28;20046;-73
2022/01/19 00:44:45;;;;;;;85.00;34.85;;;4.90;99.90;;;;;;4952076;28;20437;-73
2022/01/19 00:47:11;;;;;;;80.68;34.13;;;4.80;99.90;;;;;;4952120;28;20070;-73
2022/01/19 00:49:37;;;;;;;86.22;33.40;;;4.70;99.90;;;;;;4969439;28;20031;-73
2022/01/19 00:52:03;;;;;;;99.93;36.47;;;4.60;99.90;;;;;;4948992;28;20027;-73
2022/01/19 00:54:28;;;;;;;102.30;36.95;;;4.60;99.90;;;;;;4949705;28;20381;-73
2022/01/19 00:56:54;;;;;;;113.15;39.85;;;4.60;99.90;;;;;;4948999;28;20043;-72
2022/01/19 00:59:19;;;;;;;118.03;38.78;;;4.60;99.90;;;;;;4968178;28;20037;-71
2022/01/19 01:01:45;;;;;;;116.00;38.55;;;4.70;99.90;;;;;;4953242;28;20545;-73
2022/01/19 01:04:11;;;;;;;112.90;37.88;;;4.70;99.90;;;;;;4953559;28;20505;-72
2022/01/19 01:06:36;;;;;;;120.13;39.75;;;4.70;99.90;;;;;;4952822;28;20602;-72
2022/01/19 01:09:03;;;;;;;104.10;37.03;;;4.80;99.90;;;;;;4952399;28;20544;-72
2022/01/19 01:11:32;;;;;;;111.00;37.17;;;4.80;99.90;;;;;;4956864;28;20031;-72
2022/01/19 01:18:58;;;;;;;108.53;38.00;;;4.90;99.90;;;;;;4968925;28;20035;-73
2022/01/19 01:21:24;;;;;;;111.05;37.97;;;4.90;99.90;;;;;;4967615;28;20086;-72
2022/01/19 01:23:50;;;;;;;107.55;37.33;;;4.90;99.90;;;;;;4937870;28;20575;-73
2022/01/19 01:26:16;;;;;;;115.57;38.67;;;4.90;99.90;;;;;;4951928;28;20042;-72
2022/01/19 01:28:41;;;;;;;114.25;38.20;;;4.90;99.90;;;;;;4950932;28;20489;-73
2022/01/19 01:31:09;;;;;;;107.60;37.88;;;4.90;99.90;;;;;;4967463;28;20035;-73
2022/01/19 01:33:35;;;;;;;117.75;37.72;;;4.90;99.90;;;;;;4951933;28;20081;-73
2022/01/19 01:36:01;;;;;;;108.90;39.05;;;4.90;99.90;;;;;;4950355;28;20138;-73
2022/01/19 01:38:28;;;;;;;126.32;39.63;;;4.90;99.90;;;;;;4966427;28;20042;-73
2022/01/19 01:40:53;;;;;;;123.32;39.90;;;4.90;99.90;;;;;;4950794;28;20048;-73
2022/01/19 01:43:19;;;;;;;116.82;40.53;;;4.90;99.90;;;;;;4949829;28;20046;-73
2022/01/19 01:45:48;;;;;;;126.25;38.33;;;4.90;99.90;;;;;;4951349;28;20045;-73
2022/01/19 01:48:20;;;;;;;116.15;38.35;;;4.90;99.90;;;;;;4967901;28;20049;-73
2022/01/19 01:53:32;;;;;;;122.25;39.03;;;4.90;99.90;;;;;;4966315;28;20134;-73
2022/01/19 01:56:05;;;;;;;126.30;39.17;;;4.90;99.90;;;;;;4950769;28;20043;-73
2022/01/19 01:58:34;;;;;;;124.65;42.08;;;4.90;99.90;;;;;;4950928;28;20053;-73
2022/01/19 02:01:00;;;;;;;121.32;41.05;;;4.80;99.90;;;;;;4950439;28;20097;-73
2022/01/19 02:03:26;;;;;;;129.20;40.30;;;4.80;99.90;;;;;;4950571;28;20034;-73
2022/01/19 02:06:20;;;;;;;127.05;40.08;;;4.80;99.90;;;;;;4967871;28;20061;-73
2022/01/19 02:09:06;;;;;;;120.57;39.13;;;4.80;99.90;;;;;;4965900;28;20066;-73
2022/01/19 02:15:49;;;;;;;140.10;42.15;;;4.90;99.90;;;;;;4968082;28;20035;-73
2022/01/19 02:23:09;;;;;;;167.07;42.45;;;4.80;99.90;;;;;;4937491;28;20039;-72
2022/01/19 02:25:42;;;;;;;139.32;40.88;;;4.80;99.90;;;;;;4925203;28;20043;-72
2022/01/19 02:41:39;;;;;;;203.13;47.08;;;4.60;99.90;;;;;;4966798;28;20047;-73
2022/01/19 02:44:08;;;;;;;160.88;43.63;;;4.60;99.90;;;;;;4947921;28;20153;-72
2022/01/19 02:46:52;;;;;;;149.10;43.35;;;4.60;99.90;;;;;;4968298;28;20042;-72
2022/01/19 02:49:19;;;;;;;153.15;45.28;;;4.70;99.90;;;;;;4950885;28;20102;-73
2022/01/19 02:51:46;;;;;;;140.05;42.38;;;4.70;99.90;;;;;;4949534;28;20039;-72
2022/01/19 02:54:14;;;;;;;166.55;45.85;;;4.70;99.90;;;;;;4967658;28;20039;-72
2022/01/19 02:56:43;;;;;;;162.77;43.15;;;4.70;99.90;;;;;;4967346;28;20042;-72
2022/01/19 02:59:20;;;;;;;207.23;47.05;;;4.70;99.90;;;;;;4952488;28;20097;-72
2022/01/19 03:09:45;;;;;;;257.48;47.95;;;4.60;99.90;;;;;;4963571;28;20117;-73
2022/01/19 03:12:11;;;;;;;304.85;49.10;;;4.60;99.90;;;;;;4964327;28;20050;-73
2022/01/19 03:14:37;;;;;;;213.80;45.03;;;4.60;99.90;;;;;;4950227;28;20425;-72
2022/01/19 03:17:04;;;;;;;224.75;46.55;;;4.60;99.90;;;;;;4948287;28;20381;-72
2022/01/19 03:19:31;;;;;;;261.25;47.15;;;4.60;99.90;;;;;;4947730;28;20039;-72
2022/01/19 03:21:57;;;;;;;266.98;45.42;;;4.60;99.90;;;;;;4946663;28;20500;-72
2022/01/19 03:24:23;;;;;;;243.27;44.83;;;4.50;99.90;;;;;;4950267;28;20560;-72
2022/01/19 03:26:49;;;;;;;379.48;52.40;;;4.50;99.90;;;;;;4952161;28;20513;-72
2022/01/19 03:29:15;;;;;;;316.20;47.70;;;4.50;99.90;;;;;;4962993;28;20041;-72
2022/01/19 03:31:41;;;;;;;253.27;44.85;;;4.50;99.90;;;;;;4966188;28;20062;-72
2022/01/19 03:34:07;;;;;;;287.42;47.00;;;4.50;99.90;;;;;;4965657;28;20055;-72
2022/01/19 03:36:33;;;;;;;196.95;43.63;;;4.50;99.90;;;;;;4947391;28;20035;-72
2022/01/19 03:38:59;;;;;;;173.20;41.50;;;4.50;99.90;;;;;;4946216;28;20093;-73
2022/01/19 03:41:25;;;;;;;186.65;41.35;;;4.50;99.90;;;;;;4949563;28;20046;-72
2022/01/19 03:43:50;;;;;;;229.38;45.65;;;4.40;99.90;;;;;;4950565;28;20053;-72
2022/01/19 03:46:16;;;;;;;180.82;44.92;;;4.30;99.90;;;;;;4966557;28;20046;-73
2022/01/19 03:48:53;;;;;;;242.85;44.47;;;4.30;99.90;;;;;;4947294;28;20047;-72
2022/01/19 03:51:19;;;;;;;210.23;45.58;;;4.30;99.90;;;;;;4965473;28;20042;-73
2022/01/19 03:53:45;;;;;;;168.07;42.03;;;4.30;99.90;;;;;;4954056;28;20473;-73
2022/01/19 03:56:11;;;;;;;176.27;43.70;;;4.30;99.90;;;;;;4951877;28;20470;-72
2022/01/19 03:58:37;;;;;;;169.05;42.88;;;4.20;99.90;;;;;;4949877;28;20189;-72
2022/01/19 04:01:07;;;;;;;145.40;41.97;;;4.20;99.90;;;;;;4949975;28;20050;-72
2022/01/19 04:06:27;;;;;;;194.18;42.55;;;4.10;99.90;;;;;;4949604;28;20561;-72
2022/01/19 04:08:53;;;;;;;209.32;42.40;;;4.10;99.90;;;;;;4936930;28;20401;-72
2022/01/19 04:11:21;;;;;;;283.02;45.45;;;4.00;99.90;;;;;;4967132;28;20043;-72
2022/01/19 04:14:21;;;;;;;185.48;40.63;;;4.00;99.90;;;;;;4966096;28;20546;-71
2022/01/19 04:16:42;;;;;;;154.90;38.60;;;4.00;99.90;;;;;;4951258;28;20421;-73
2022/01/19 04:19:23;;;;;;;270.13;45.53;;;3.90;99.90;;;;;;4953408;28;20047;-72
2022/01/19 04:21:51;;;;;;;235.02;42.75;;;3.80;99.90;;;;;;4952872;28;20074;-72
2022/01/19 04:24:17;;;;;;;168.45;41.70;;;3.70;99.90;;;;;;4951066;28;20038;-72
2022/01/19 04:26:44;;;;;;;132.73;37.85;;;3.60;99.90;;;;;;4950712;28;20417;-72
2022/01/19 04:29:10;;;;;;;113.55;37.08;;;3.60;99.90;;;;;;4946147;28;20655;-73
2022/01/19 04:31:35;;;;;;;116.68;36.53;;;3.60;99.90;;;;;;4952659;28;20170;-73
2022/01/19 04:34:04;;;;;;;98.70;35.50;;;3.60;99.90;;;;;;4952507;28;20039;-73
2022/01/19 04:36:46;;;;;;;91.57;34.80;;;3.60;99.90;;;;;;4948524;28;20506;-72
2022/01/19 04:39:26;;;;;;;112.75;35.63;;;3.50;99.90;;;;;;4953595;28;20517;-73
2022/01/19 04:44:54;;;;;;;98.75;35.72;;;3.40;99.90;;;;;;4977519;23;20113;-74
2022/01/19 05:03:50;;;;;;;114.25;37.72;;;3.00;99.90;;;;;;4923851;29;20105;-75
2022/01/19 05:06:19;;;;;;;132.60;40.03;;;3.10;99.90;;;;;;4928275;29;20102;-75
2022/01/19 05:08:57;;;;;;;124.07;41.50;;;3.10;99.90;;;;;;4912511;29;20039;-75
2022/01/19 05:14:08;;;;;;;136.70;44.03;;;3.20;99.90;;;;;;4939139;29;20035;-75
2022/01/19 05:16:34;;;;;;;140.82;43.15;;;3.10;99.90;;;;;;4921885;29;20041;-75
2022/01/19 05:19:00;;;;;;;175.02;45.08;;;3.10;99.90;;;;;;4929401;29;20043;-75
2022/01/19 05:21:26;;;;;;;177.93;45.92;;;3.10;99.90;;;;;;4925560;29;20126;-75
2022/01/19 05:23:52;;;;;;;178.55;45.55;;;3.10;99.90;;;;;;4942070;29;20063;-75
2022/01/19 05:26:18;;;;;;;180.32;46.17;;;3.10;99.90;;;;;;4921678;29;20421;-75
2022/01/19 05:28:43;;;;;;;267.38;50.00;;;3.10;99.90;;;;;;4929583;29;20042;-75
2022/01/19 05:31:09;;;;;;;265.13;50.60;;;3.10;99.90;;;;;;4922795;29;20039;-74
2022/01/19 05:33:35;;;;;;;249.13;48.40;;;3.10;99.90;;;;;;4923881;29;20031;-75
2022/01/19 05:36:01;;;;;;;231.68;49.33;;;3.10;99.90;;;;;;4923394;29;20047;-75
2022/01/19 05:38:27;;;;;;;212.35;50.28;;;3.00;99.90;;;;;;4933909;29;20048;-75
2022/01/19 05:40:52;;;;;;;225.20;49.92;;;3.00;99.90;;;;;;4919660;29;20171;-75
2022/01/19 05:43:18;;;;;;;188.48;49.50;;;3.10;99.90;;;;;;4938573;29;20168;-75
2022/01/19 05:45:44;;;;;;;184.80;48.28;;;3.10;99.90;;;;;;4922483;29;20036;-75
2022/01/19 05:48:10;;;;;;;224.65;51.85;;;3.10;99.90;;;;;;4922799;29;20043;-75
2022/01/19 05:50:35;;;;;;;195.60;49.55;;;3.10;99.90;;;;;;4915336;29;20041;-75
2022/01/19 05:53:01;;;;;;;192.55;50.42;;;3.00;99.90;;;;;;4932954;29;20047;-75
2022/01/19 05:55:27;;;;;;;198.65;50.72;;;3.00;99.90;;;;;;4925508;29;20098;-75
2022/01/19 05:57:52;;;;;;;209.68;51.45;;;3.00;99.90;;;;;;4925515;29;20046;-75
2022/01/19 06:00:21;;;;;;;197.38;53.05;;;3.10;99.90;;;;;;4929595;29;20055;-75
2022/01/19 06:02:46;;;;;;;165.55;48.40;;;3.10;99.90;;;;;;4924321;29;20044;-75
2022/01/19 06:05:12;;;;;;;181.30;49.03;;;3.10;99.90;;;;;;4926280;29;20071;-75
2022/01/19 06:07:42;;;;;;;161.63;48.03;;;3.20;99.90;;;;;;4920540;29;20040;-75
2022/01/19 06:10:11;;;;;;;161.02;47.50;;;3.20;99.90;;;;;;4926830;29;20493;-75
2022/01/19 06:12:38;;;;;;;153.13;45.08;;;3.30;99.90;;;;;;4933529;29;20483;-75
2022/01/19 06:15:05;;;;;;;164.52;46.83;;;3.30;99.90;;;;;;4943539;29;20545;-74
2022/01/19 06:17:31;;;;;;;145.63;42.65;;;3.40;99.90;;;;;;4936731;29;20046;-75
2022/01/19 06:19:57;;;;;;;142.63;43.85;;;3.40;99.90;;;;;;4937355;29;20512;-75
2022/01/19 06:22:22;;;;;;;143.60;45.15;;;3.40;99.90;;;;;;4910425;29;20048;-75
2022/01/19 06:24:48;;;;;;;135.40;43.95;;;3.50;99.90;;;;;;4908662;29;20059;-75
2022/01/19 06:27:14;;;;;;;144.48;43.75;;;3.50;99.90;;;;;;4925041;29;20031;-75
2022/01/19 06:29:40;;;;;;;129.32;43.38;;;3.50;99.90;;;;;;4919505;29;20043;-75
2022/01/19 06:32:07;;;;;;;138.23;43.13;;;3.40;99.90;;;;;;4923638;29;20481;-75
2022/01/19 06:34:32;;;;;;;130.63;43.33;;;3.50;99.90;;;;;;4920673;29;20147;-75
2022/01/19 06:36:58;;;;;;;133.50;43.42;;;3.50;99.90;;;;;;4921659;29;20131;-75
2022/01/19 06:39:24;;;;;;;135.70;44.85;;;3.50;99.90;;;;;;4925820;29;20043;-75
2022/01/19 06:41:50;;;;;;;139.27;45.10;;;3.40;99.90;;;;;;4915139;29;20055;-74
2022/01/19 06:44:15;;;;;;;142.05;45.55;;;3.40;99.90;;;;;;4930847;29;20050;-74
2022/01/19 06:46:44;;;;;;;134.85;44.70;;;3.50;99.90;;;;;;4898726;29;1067432;-75
2022/01/19 06:49:10;;;;;;;149.95;45.15;;;3.60;99.90;;;;;;4930797;29;20501;-75
2022/01/19 06:51:36;;;;;;;128.98;43.67;;;3.60;99.90;;;;;;4913851;29;20450;-75
2022/01/19 06:54:02;;;;;;;126.97;43.80;;;3.60;99.90;;;;;;4913471;29;20036;-74
2022/01/19 06:56:28;;;;;;;135.15;44.42;;;3.70;99.90;;;;;;4915746;29;20044;-75
2022/01/19 06:58:54;;;;;;;136.30;44.85;;;3.70;99.90;;;;;;4927991;29;20051;-75
2022/01/19 07:01:19;;;;;;;131.55;45.35;;;3.60;99.90;;;;;;4915268;29;20564;-75
2022/01/19 07:03:45;;;;;;;128.30;41.85;;;3.60;99.90;;;;;;4917951;29;20047;-75
2022/01/19 07:06:11;;;;;;;117.93;43.83;;;3.60;99.90;;;;;;4929027;29;20043;-74
2022/01/19 07:08:40;;;;;;;111.65;41.38;;;3.50;99.90;;;;;;4931276;29;20513;-74
2022/01/19 07:11:06;;;;;;;108.53;40.20;;;3.60;99.90;;;;;;4918660;29;20035;-74
2022/01/19 07:13:32;;;;;;;106.32;41.17;;;3.60;99.90;;;;;;4918886;29;20043;-74
2022/01/19 07:15:57;;;;;;;97.07;39.17;;;3.60;99.90;;;;;;4909126;29;20533;-74
2022/01/19 07:18:23;;;;;;;90.95;37.95;;;3.50;99.90;;;;;;4929455;29;20042;-74
2022/01/19 07:20:49;;;;;;;83.63;37.80;;;3.60;99.90;;;;;;4911213;29;20466;-74
2022/01/19 07:23:14;;;;;;;87.10;37.40;;;3.60;99.90;;;;;;4915554;29;20767;-73
2022/01/19 07:25:40;;;;;;;83.18;36.50;;;3.60;99.90;;;;;;4928240;29;20058;-74
2022/01/19 07:28:08;;;;;;;78.18;35.70;;;3.70;99.90;;;;;;4932094;29;20035;-74
2022/01/19 07:30:35;;;;;;;80.40;37.08;;;3.70;99.90;;;;;;4920689;29;20163;-74
2022/01/19 07:33:01;;;;;;;75.32;36.42;;;3.70;99.90;;;;;;4922770;29;20054;-74
2022/01/19 07:35:27;;;;;;;75.10;36.30;;;3.60;99.90;;;;;;4918611;29;20044;-74
2022/01/19 07:37:52;;;;;;;77.25;36.13;;;3.70;99.90;;;;;;4920578;29;20520;-74
2022/01/19 07:40:18;;;;;;;70.55;35.58;;;3.70;99.90;;;;;;4939734;29;20576;-74
2022/01/19 07:42:44;;;;;;;70.00;36.42;;;3.70;99.90;;;;;;4924281;29;20047;-74
2022/01/19 07:45:10;;;;;;;68.00;35.42;;;3.70;99.90;;;;;;4923205;29;20540;-74
2022/01/19 07:47:36;;;;;;;66.15;35.78;;;3.70;99.90;;;;;;4921335;29;20144;-74
2022/01/19 07:50:03;;;;;;;73.38;36.58;;;3.70;99.90;;;;;;4941989;29;20491;-74
2022/01/19 07:52:29;;;;;;;71.22;36.40;;;3.70;99.90;;;;;;4924599;29;20047;-74
2022/01/19 07:54:54;;;;;;;63.03;34.92;;;3.70;99.90;;;;;;4917858;29;20119;-74
2022/01/19 07:57:20;;;;;;;68.40;35.88;;;3.70;99.90;;;;;;4936068;29;20135;-74
2022/01/19 07:59:46;;;;;;;62.75;35.30;;;3.70;99.90;;;;;;4931159;29;20087;-74
2022/01/19 08:02:13;;;;;;;64.32;34.90;;;3.70;99.90;;;;;;4918898;29;20043;-74
2022/01/19 08:07:17;;;;;;;62.40;34.03;;;3.70;99.90;;;;;;4971958;28;20046;-74
2022/01/19 08:09:58;;;;;;;63.92;35.22;;;3.70;99.90;;;;;;4975665;28;20039;-74
2022/01/19 08:17:45;;;;;;;60.67;34.73;;;3.70;99.90;;;;;;4947302;28;20130;-73
2022/01/19 08:20:46;;;;;;;63.00;34.28;;;3.70;99.90;;;;;;4915558;29;20836;-73
2022/01/19 08:23:17;;;;;;;61.55;34.78;;;3.70;99.90;;;;;;4928535;29;20059;-73
2022/01/19 08:25:43;;;;;;;59.13;35.35;;;3.80;99.90;;;;;;4937250;28;20051;-73
2022/01/19 08:31:54;;;;;;;66.57;34.92;;;3.80;99.90;;;;;;4935762;29;20137;-73
2022/01/19 08:34:43;;;;;;;66.00;36.55;;;3.80;99.90;;;;;;4949866;28;20405;-74
2022/01/19 08:37:15;;;;;;;62.72;34.10;;;3.80;99.90;;;;;;4954173;28;20150;-74
2022/01/19 08:39:45;;;;;;;63.60;35.42;;;3.90;99.90;;;;;;4937828;29;20039;-74
2022/01/19 08:43:16;;;;;;;63.92;36.13;;;3.90;99.90;;;;;;4938705;29;20153;-74
2022/01/19 08:45:57;;;;;;;68.13;36.38;;;3.80;99.90;;;;;;4903288;29;20573;-74
2022/01/19 08:48:28;;;;;;;63.42;35.58;;;3.80;99.90;;;;;;4966197;28;20126;-74
2022/01/19 08:50:54;;;;;;;68.57;36.80;;;3.90;99.90;;;;;;4933592;29;20074;-74
2022/01/19 08:53:31;;;;;;;65.00;36.40;;;3.90;99.90;;;;;;4938877;29;20056;-73
2022/01/19 08:56:00;;;;;;;69.50;37.92;;;3.80;99.90;;;;;;4953819;28;20035;-73
2022/01/19 08:58:26;;;;;;;73.97;38.60;;;3.80;99.90;;;;;;4938557;28;20043;-73
2022/01/19 09:00:52;;;;;;;74.65;39.65;;;3.80;99.90;;;;;;4937610;28;20102;-73
2022/01/19 09:03:18;;;;;;;75.53;40.40;;;3.80;99.90;;;;;;4936577;29;20047;-73
2022/01/19 09:05:49;;;;;;;69.72;40.55;;;3.90;99.90;;;;;;4938603;28;20039;-73
2022/01/19 09:08:30;;;;;;;71.35;40.38;;;3.90;99.90;;;;;;4939840;29;20054;-73
2022/01/19 09:11:08;;;;;;;73.00;42.38;;;3.90;99.90;;;;;;4922442;28;20509;-73
2022/01/19 09:13:37;;;;;;;79.40;42.25;;;3.90;99.90;;;;;;4937298;29;20409;-73
2022/01/19 09:16:06;;;;;;;77.13;43.45;;;3.90;99.90;;;;;;4937757;29;20067;-73
2022/01/19 09:18:32;;;;;;;78.80;43.22;;;3.90;99.90;;;;;;4934074;28;20091;-73
2022/01/19 09:21:03;;;;;;;78.45;45.35;;;3.90;99.90;;;;;;4937832;29;20039;-74
2022/01/19 09:23:30;;;;;;;78.75;44.47;;;4.00;99.90;;;;;;4939018;29;20058;-73
2022/01/19 09:25:57;;;;;;;76.50;42.45;;;4.10;99.90;;;;;;4940756;29;20040;-73
2022/01/19 09:28:22;;;;;;;80.28;44.80;;;4.10;99.90;;;;;;4936495;28;20050;-73
2022/01/19 09:30:51;;;;;;;76.05;44.00;;;4.10;99.90;;;;;;4946569;28;20034;-74
2022/01/19 09:33:20;;;;;;;76.93;43.97;;;4.10;99.90;;;;;;4938057;28;20035;-74
2022/01/19 09:36:06;;;;;;;78.32;42.72;;;4.10;99.90;;;;;;4936264;29;20151;-74
2022/01/19 09:38:37;;;;;;;71.78;39.95;;;4.10;99.90;;;;;;4950027;28;20987;-74
2022/01/19 09:41:06;;;;;;;71.60;42.13;;;4.10;99.90;;;;;;4934558;29;20068;-74
2022/01/19 09:43:32;;;;;;;78.43;42.33;;;4.10;99.90;;;;;;4933436;29;20039;-74
2022/01/19 09:46:00;;;;;;;80.85;43.58;;;4.10;99.90;;;;;;4934630;29;20094;-74
2022/01/19 09:48:26;;;;;;;77.35;43.70;;;4.10;99.90;;;;;;4932196;28;20043;-73
2022/01/19 09:50:54;;;;;;;79.03;42.92;;;4.10;99.90;;;;;;4935893;29;20050;-74
2022/01/19 09:53:20;;;;;;;75.20;42.35;;;4.20;99.90;;;;;;4932781;29;20048;-74
2022/01/19 09:55:47;;;;;;;85.82;43.92;;;4.20;99.90;;;;;;4933840;29;20050;-74
2022/01/19 09:58:13;;;;;;;76.25;42.97;;;4.30;99.90;;;;;;4946047;29;20039;-74
2022/01/19 10:00:40;;;;;;;77.95;42.47;;;4.30;99.90;;;;;;4932849;29;20074;-74
2022/01/19 10:03:16;;;;;;;73.60;43.38;;;4.30;99.90;;;;;;4932048;29;20053;-74
2022/01/19 10:06:01;;;;;;;79.53;41.70;;;4.40;99.90;;;;;;4946550;28;20047;-74
2022/01/19 10:08:32;;;;;;;72.75;39.92;;;4.40;99.90;;;;;;4932439;28;20133;-74
2022/01/19 10:17:00;;;;;;;80.72;44.05;;;4.40;99.90;;;;;;4930869;29;20090;-75
2022/01/19 10:19:29;;;;;;;82.45;45.35;;;4.40;99.90;;;;;;4948133;29;20054;-75
2022/01/19 10:22:19;;;;;;;87.70;45.50;;;4.40;99.90;;;;;;4933394;29;20050;-74
2022/01/19 10:25:04;;;;;;;85.53;46.47;;;4.50;99.90;;;;;;4929017;28;20501;-74
2022/01/19 10:27:42;;;;;;;83.22;47.40;;;4.50;99.90;;;;;;4950084;28;20050;-74
2022/01/19 10:30:08;;;;;;;81.28;46.22;;;4.50;99.90;;;;;;4930448;29;20513;-75
2022/01/19 10:32:46;;;;;;;84.80;44.47;;;4.50;99.90;;;;;;4930059;29;20047;-75
2022/01/19 10:35:32;;;;;;;82.13;44.63;;;4.60;99.90;;;;;;4927855;29;20058;-74
2022/01/19 10:38:29;;;;;;;83.70;45.08;;;4.60;99.90;;;;;;4929231;29;20043;-75
2022/01/19 10:40:58;;;;;;;87.63;48.35;;;4.60;99.90;;;;;;4937283;29;20035;-74
2022/01/19 10:43:31;;;;;;;85.53;48.45;;;4.60;99.90;;;;;;4929275;29;20038;-74
2022/01/19 10:46:00;;;;;;;82.55;46.35;;;4.60;99.90;;;;;;4930675;29;20046;-74
2022/01/19 10:48:37;;;;;;;87.55;46.97;;;4.60;99.90;;;;;;4932071;29;20129;-74
2022/01/19 10:51:07;;;;;;;85.45;47.83;;;4.60;99.90;;;;;;4932434;29;20047;-75
2022/01/19 10:53:33;;;;;;;86.45;47.53;;;4.60;99.90;;;;;;4941228;29;20109;-74
2022/01/19 10:55:59;;;;;;;92.97;50.00;;;4.60;99.90;;;;;;4948181;29;20039;-75
2022/01/19 10:58:24;;;;;;;92.78;50.95;;;4.70;99.90;;;;;;4949375;28;20073;-74
2022/01/19 11:00:52;;;;;;;95.13;48.15;;;4.60;99.90;;;;;;4930932;29;20043;-74
2022/01/19 11:03:21;;;;;;;94.05;51.90;;;4.70;99.90;;;;;;4932542;29;20074;-74
2022/01/19 11:05:56;;;;;;;100.13;50.83;;;4.80;99.90;;;;;;4931370;29;20411;-74
2022/01/19 11:08:23;;;;;;;100.32;50.55;;;4.80;99.90;;;;;;4947433;29;20067;-74
2022/01/19 11:10:53;;;;;;;102.72;51.53;;;4.90;99.90;;;;;;4932761;29;20035;-74
2022/01/19 11:13:39;;;;;;;97.60;49.72;;;4.90;99.90;;;;;;4932343;29;20065;-74
2022/01/19 11:16:06;;;;;;;107.78;51.15;;;4.90;99.90;;;;;;4933898;28;20047;-74
2022/01/19 11:18:35;;;;;;;101.55;51.83;;;4.90;99.90;;;;;;4930401;29;20074;-74
2022/01/19 11:21:09;;;;;;;111.93;54.67;;;4.90;99.90;;;;;;4949562;28;20073;-74
2022/01/19 11:23:51;;;;;;;107.82;56.33;;;4.80;99.90;;;;;;4930284;28;20066;-74
2022/01/19 11:26:26;;;;;;;106.63;56.92;;;4.80;99.90;;;;;;4916801;29;20094;-74
2022/01/19 11:28:52;;;;;;;118.68;57.35;;;4.80;99.90;;;;;;4948942;28;20039;-74
2022/01/19 11:31:38;;;;;;;115.13;57.55;;;4.80;99.90;;;;;;4931669;28;20046;-74
2022/01/19 11:34:04;;;;;;;116.55;54.58;;;4.80;99.90;;;;;;4933332;29;20043;-74
2022/01/19 11:36:35;;;;;;;111.47;56.53;;;4.80;99.90;;;;;;4948043;28;20502;-74
2022/01/19 11:39:10;;;;;;;114.80;53.55;;;4.80;99.90;;;;;;4930829;29;21299;-74
2022/01/19 11:41:47;;;;;;;124.72;57.65;;;4.90;99.90;;;;;;4930500;28;20205;-74
2022/01/19 11:44:28;;;;;;;115.80;54.72;;;4.90;99.90;;;;;;4930479;29;20050;-74
2022/01/19 11:46:56;;;;;;;121.05;56.63;;;4.80;99.90;;;;;;4930729;29;20051;-74
2022/01/19 11:49:47;;;;;;;134.57;60.45;;;4.90;99.90;;;;;;4931631;29;20035;-74
2022/01/19 11:52:15;;;;;;;132.57;61.45;;;4.80;99.90;;;;;;4946071;28;20047;-74
2022/01/19 11:54:41;;;;;;;134.68;62.67;;;4.80;99.90;;;;;;4930960;29;20078;-74
2022/01/19 11:57:16;;;;;;;125.18;59.22;;;4.80;99.90;;;;;;4932088;29;20429;-74
2022/01/19 11:59:45;;;;;;;125.88;57.95;;;4.90;99.90;;;;;;4932583;29;20051;-74
2022/01/19 12:02:32;;;;;;;129.05;58.78;;;4.90;99.90;;;;;;4932235;29;20109;-74
2022/01/19 12:04:58;;;;;;;141.57;63.28;;;4.80;99.90;;;;;;4932493;28;20043;-74
2022/01/19 12:07:45;;;;;;;138.07;62.25;;;4.90;99.90;;;;;;4934071;28;20047;-74
2022/01/19 12:10:31;;;;;;;138.20;62.08;;;4.90;99.90;;;;;;4931717;29;20050;-74
2022/01/19 12:14:09;;;;;;;124.95;58.50;;;4.90;99.90;;;;;;4947652;28;20577;-75
2022/01/19 12:18:55;;;;;;;125.80;60.80;;;4.90;99.90;;;;;;4934817;28;20065;-74
2022/01/19 12:21:21;;;;;;;129.45;60.47;;;4.90;99.90;;;;;;4934042;29;20047;-75
2022/01/19 12:23:48;;;;;;;121.07;62.08;;;4.90;99.90;;;;;;4934002;29;20035;-74
2022/01/19 12:26:14;;;;;;;128.32;60.92;;;4.90;99.90;;;;;;4954892;28;20071;-74
2022/01/19 12:28:48;;;;;;;126.53;57.78;;;4.80;99.90;;;;;;4932755;28;20078;-75
2022/01/19 12:31:26;;;;;;;118.03;57.45;;;4.80;99.90;;;;;;4934769;29;20035;-75
2022/01/19 12:37:00;;;;;;;116.57;58.78;;;4.90;99.90;;;;;;4948811;29;20082;-75
2022/01/19 12:39:26;;;;;;;123.97;58.35;;;5.00;99.90;;;;;;4933676;29;20047;-75
2022/01/19 12:41:59;;;;;;;127.45;59.35;;;4.90;99.90;;;;;;4933997;29;20097;-74
2022/01/19 12:44:49;;;;;;;118.50;56.58;;;4.90;99.90;;;;;;4947744;28;20130;-75
2022/01/19 12:47:24;;;;;;;119.15;58.25;;;4.90;99.90;;;;;;4923472;28;20062;-74
2022/01/19 12:49:50;;;;;;;126.80;59.88;;;4.90;99.90;;;;;;4930409;28;20031;-74
2022/01/19 12:52:20;;;;;;;117.97;58.75;;;4.90;99.90;;;;;;4931222;28;20126;-74
2022/01/19 12:54:47;;;;;;;132.95;63.20;;;4.90;99.90;;;;;;4951292;28;20027;-74
2022/01/19 12:57:15;;;;;;;123.78;58.83;;;4.90;99.90;;;;;;4946874;28;20061;-74
2022/01/19 12:59:47;;;;;;;126.85;61.35;;;4.90;99.90;;;;;;4935081;29;20047;-74
2022/01/19 13:02:16;;;;;;;120.78;58.90;;;4.90;99.90;;;;;;4935678;29;20074;-74
2022/01/19 13:04:46;;;;;;;121.57;60.03;;;4.90;99.90;;;;;;4949158;28;20047;-74
2022/01/19 13:07:26;;;;;;;126.20;59.60;;;4.90;99.90;;;;;;4933886;29;20043;-74
2022/01/19 13:10:37;;;;;;;127.50;61.70;;;4.90;99.90;;;;;;4932495;29;20037;-74
2022/01/19 13:13:09;;;;;;;128.10;59.72;;;4.90;99.90;;;;;;4936197;28;20129;-73
2022/01/19 13:15:50;;;;;;;127.15;61.63;;;5.00;99.90;;;;;;4933276;28;20054;-73
2022/01/19 13:18:28;;;;;;;114.32;55.88;;;5.00;99.90;;;;;;4948810;28;20058;-73
2022/01/19 13:20:56;;;;;;;115.25;54.65;;;5.00;99.90;;;;;;4933258;28;20054;-73
2022/01/19 13:23:22;;;;;;;111.97;55.58;;;5.00;99.90;;;;;;4932303;28;20105;-73
2022/01/19 13:26:02;;;;;;;117.70;57.30;;;5.10;99.90;;;;;;4948703;28;20054;-73
2022/01/19 13:28:32;;;;;;;116.63;57.35;;;5.10;99.90;;;;;;4933700;28;20078;-73
2022/01/19 13:31:21;;;;;;;115.30;55.22;;;5.10;99.90;;;;;;4932777;28;20043;-73
2022/01/19 13:33:53;;;;;;;110.10;56.65;;;5.10;99.90;;;;;;4953475;28;20039;-73
2022/01/19 13:36:31;;;;;;;107.55;56.53;;;5.20;99.90;;;;;;4932550;29;20051;-74
2022/01/19 13:38:56;;;;;;;98.75;54.55;;;5.20;99.90;;;;;;4933550;28;20059;-74
2022/01/19 13:41:23;;;;;;;102.45;55.55;;;5.20;99.90;;;;;;4932930;28;20062;-74
2022/01/19 13:43:49;;;;;;;99.18;52.17;;;5.20;99.90;;;;;;4936354;28;20138;-74
2022/01/19 13:46:32;;;;;;;96.40;51.33;;;5.30;99.90;;;;;;4953324;23;20058;-74
2022/01/19 13:49:03;;;;;;;92.63;49.63;;;5.30;99.90;;;;;;4910000;29;20042;-74
2022/01/19 13:51:30;;;;;;;88.57;51.22;;;5.40;99.90;;;;;;4912552;29;20040;-73
2022/01/19 13:54:00;;;;;;;83.07;49.90;;;5.30;99.90;;;;;;4911054;29;20146;-74
2022/01/19 13:56:29;;;;;;;92.10;48.85;;;5.30;99.90;;;;;;4929046;29;20044;-73
2022/01/19 13:58:58;;;;;;;77.15;45.25;;;5.30;99.90;;;;;;4932049;29;20386;-74
2022/01/19 14:04:18;;;;;;;80.53;41.85;;;5.50;99.90;;;;;;4930744;28;20087;-73
2022/01/19 14:06:47;;;;;;;68.53;40.85;;;5.60;99.90;;;;;;4930300;29;20051;-73
2022/01/19 14:09:31;;;;;;;77.65;45.03;;;5.60;99.90;;;;;;4929053;29;20454;-73
2022/01/19 14:11:59;;;;;;;73.63;42.38;;;5.60;99.90;;;;;;4931482;29;20054;-74
2022/01/19 14:14:32;;;;;;;73.82;41.90;;;5.60;99.90;;;;;;4935955;28;20043;-73